Time;durP1;ratioP1;P1;durP2;ratioP2;P2;SDS_P1;SDS_P2;PMS_P1;PMS_P2;Temp;Humidity;BMP_temperature;BMP_pressure;BME280_temperature;BME280_humidity;BME280_pressure;Samples;Min_cycle;Max_cycle;Signal;HPM_P1;HPM_P2
2021/06/18 00:02:26;;;;;;;12.35;11.03;;;;;;;20.41;54.53;100507.07;2088078;85;27427;-61
2021/06/18 00:05:29;;;;;;;14.80;11.22;;;;;;;20.37;54.64;100502.38;2061719;86;28739;-60
2021/06/18 00:08:31;;;;;;;13.75;12.05;;;;;;;20.31;54.81;100501.06;2087961;84;31099;-60
2021/06/18 00:11:33;;;;;;;12.95;11.55;;;;;;;20.26;54.96;100504.70;2061658;86;33038;-60
2021/06/18 00:14:36;;;;;;;16.25;12.43;;;;;;;20.23;54.88;100495.45;2087990;84;29443;-61
2021/06/18 00:17:38;;;;;;;14.80;13.18;;;;;;;20.20;54.93;100495.70;2061812;86;27454;-60
2021/06/18 00:20:40;;;;;;;15.58;13.70;;;;;;;20.17;55.18;100496.84;2087979;85;28673;-61
2021/06/18 00:23:42;;;;;;;14.95;13.20;;;;;;;20.14;55.04;100495.75;2087941;85;31075;-60
2021/06/18 00:26:44;;;;;;;16.32;13.40;;;;;;;20.10;55.20;100494.80;2087933;85;33038;-60
2021/06/18 00:29:47;;;;;;;16.27;12.95;;;;;;;20.04;55.29;100489.37;2087970;85;29414;-60
2021/06/18 00:32:49;;;;;;;13.80;12.07;;;;;;;20.00;55.27;100491.50;2087991;85;27433;-60
2021/06/18 00:35:51;;;;;;;18.25;15.48;;;;;;;19.94;55.42;100491.17;2087933;85;28747;-60
2021/06/18 00:38:54;;;;;;;18.10;13.32;;;;;;;19.88;55.55;100490.70;2057692;85;31102;-62
2021/06/18 00:42:00;;;;;;;13.18;11.70;;;;;;;19.83;55.60;100491.58;2052765;86;33647;-61
2021/06/18 00:45:04;;;;;;;19.07;13.45;;;;;;;19.79;55.80;100487.39;2046894;86;29465;-61
2021/06/18 00:48:08;;;;;;;19.87;13.98;;;;;;;19.74;55.91;100486.91;2053007;85;27478;-61
2021/06/18 00:51:10;;;;;;;13.78;12.03;;;;;;;19.70;55.83;100483.60;2047185;87;28781;-61
2021/06/18 00:54:13;;;;;;;16.17;13.05;;;;;;;19.65;56.01;100474.97;2091235;85;31098;-60
2021/06/18 00:57:17;;;;;;;16.30;13.08;;;;;;;19.63;55.98;100476.95;2047122;87;33095;-60
2021/06/18 01:00:21;;;;;;;16.50;11.85;;;;;;;19.59;56.27;100475.00;2091304;85;29466;-60
2021/06/18 01:03:23;;;;;;;14.57;12.83;;;;;;;19.55;56.38;100466.73;2091630;85;27502;-61
2021/06/18 01:06:33;;;;;;;13.98;12.50;;;;;;;19.52;56.62;100463.42;2091311;85;28724;-61
2021/06/18 01:10:09;;;;;;;15.32;11.93;;;;;;;19.47;56.70;100469.26;2091297;84;31620;-61
2021/06/18 01:13:28;;;;;;;12.40;11.20;;;;;;;19.42;56.83;100471.49;2091351;85;32978;-61
2021/06/18 01:16:54;;;;;;;17.42;12.40;;;;;;;19.36;56.98;100468.80;2091305;84;29500;-61
2021/06/18 01:20:17;;;;;;;17.15;12.43;;;;;;;19.35;57.27;100467.08;2091403;85;27800;-61
2021/06/18 01:23:33;;;;;;;15.45;12.30;;;;;;;19.31;57.38;100472.39;2091325;85;28956;-61
2021/06/18 01:27:02;;;;;;;14.80;11.97;;;;;;;19.27;57.46;100465.52;2090816;85;31062;-60
2021/06/18 01:30:19;;;;;;;14.18;11.50;;;;;;;19.23;57.46;100464.88;2091259;85;32970;-61
2021/06/18 01:33:23;;;;;;;12.53;11.22;;;;;;;19.19;57.40;100458.02;2091245;85;29563;-62
2021/06/18 01:36:27;;;;;;;14.43;12.73;;;;;;;19.16;57.39;100463.69;2053066;86;27596;-61
2021/06/18 01:39:30;;;;;;;13.65;11.95;;;;;;;19.14;57.43;100464.31;2090841;84;28782;-61
2021/06/18 01:42:35;;;;;;;20.60;12.80;;;;;;;19.10;57.64;100458.28;2052724;86;31164;-61
2021/06/18 01:45:38;;;;;;;14.38;12.78;;;;;;;19.08;57.63;100464.81;2052825;86;33017;-61
2021/06/18 01:48:43;;;;;;;15.55;13.13;;;;;;;19.07;57.53;100469.88;2047141;87;29435;-61
2021/06/18 01:51:46;;;;;;;17.10;12.88;;;;;;;19.06;57.60;100469.50;2052829;85;27428;-60
2021/06/18 01:54:50;;;;;;;14.23;12.65;;;;;;;19.04;57.56;100470.12;2091246;85;28733;-61
2021/06/18 01:57:56;;;;;;;14.50;12.45;;;;;;;19.02;57.77;100466.19;2091243;85;31052;-61
2021/06/18 02:00:58;;;;;;;13.80;11.20;;;;;;;19.00;57.60;100463.23;2052710;86;33131;-61
2021/06/18 02:04:05;;;;;;;13.22;11.33;;;;;;;18.97;57.80;100462.50;2058579;86;29189;-60
2021/06/18 02:07:08;;;;;;;14.58;10.72;;;;;;;18.94;57.78;100465.47;2046769;87;27463;-61
2021/06/18 02:10:11;;;;;;;15.43;11.08;;;;;;;18.93;57.92;100463.70;2091244;85;28794;-61
2021/06/18 02:13:17;;;;;;;14.50;11.55;;;;;;;18.92;57.80;100457.91;2091161;85;31105;-60
2021/06/18 02:16:19;;;;;;;13.85;11.10;;;;;;;18.91;57.87;100458.89;2091187;85;33081;-61
2021/06/18 02:19:23;;;;;;;13.10;11.40;;;;;;;18.92;57.74;100463.84;2046811;86;29480;-61
2021/06/18 02:22:26;;;;;;;12.18;10.53;;;;;;;18.91;57.71;100463.47;2091311;85;27508;-60
2021/06/18 02:25:32;;;;;;;13.15;11.78;;;;;;;18.87;57.83;100457.92;2091257;85;28739;-60
2021/06/18 02:28:36;;;;;;;13.78;11.10;;;;;;;18.81;57.83;100453.36;2052685;86;31102;-60
2021/06/18 02:31:40;;;;;;;13.03;10.53;;;;;;;18.76;57.98;100452.02;2091080;85;33172;-60
2021/06/18 02:34:43;;;;;;;14.93;11.38;;;;;;;18.70;58.19;100453.38;2091316;85;36638;-61
2021/06/18 02:37:45;;;;;;;13.60;11.12;;;;;;;18.64;58.26;100465.60;2091242;84;27512;-60
2021/06/18 02:40:48;;;;;;;15.83;10.53;;;;;;;18.60;58.42;100469.55;2091248;85;28847;-61
2021/06/18 02:43:50;;;;;;;12.80;11.40;;;;;;;18.58;58.34;100468.80;2091338;85;31088;-61
2021/06/18 02:47:27;;;;;;;15.70;10.82;;;;;;;18.57;58.43;100464.87;2091138;85;33050;-61
2021/06/18 02:50:56;;;;;;;11.50;10.25;;;;;;;18.52;58.48;100468.81;2046991;86;29405;-62
2021/06/18 02:54:03;;;;;;;16.40;12.40;;;;;;;18.50;58.61;100472.64;2021339;87;27493;-60
2021/06/18 02:57:16;;;;;;;14.47;12.47;;;;;;;18.50;58.51;100484.34;2021280;88;28804;-60
2021/06/18 03:00:20;;;;;;;14.30;12.88;;;;;;;18.54;58.63;100486.31;2020520;88;31119;-60
2021/06/18 03:03:43;;;;;;;15.17;12.27;;;;;;;18.56;58.56;100482.98;2021158;88;33111;-61
2021/06/18 03:06:48;;;;;;;17.75;14.33;;;;;;;18.59;58.65;100482.74;2021266;88;29557;-61
2021/06/18 03:09:53;;;;;;;20.77;15.08;;;;;;;18.61;58.60;100482.13;2021359;88;27500;-61
2021/06/18 03:13:08;;;;;;;16.30;14.25;;;;;;;18.67;58.54;100490.26;2021371;88;28739;-60
2021/06/18 03:16:12;;;;;;;18.35;13.58;;;;;;;18.72;58.65;100496.66;2021239;88;31128;-62
2021/06/18 03:19:17;;;;;;;16.80;12.70;;;;;;;18.76;58.82;100492.25;2021348;88;37145;-61
2021/06/18 03:22:19;;;;;;;;;;;;;;;18.78;58.69;100490.75;2023716;88;29567;-61
2021/06/18 03:25:24;;;;;;;16.15;11.18;;;;;;;18.78;58.64;100492.11;2020227;88;27505;-60
2021/06/18 03:28:28;;;;;;;17.23;11.33;;;;;;;18.76;58.79;100494.96;2021392;88;28797;-61
2021/06/18 03:31:30;;;;;;;14.90;11.85;;;;;;;18.76;58.64;100505.81;2081350;85;31034;-62
2021/06/18 03:34:35;;;;;;;17.50;11.57;;;;;;;18.78;58.64;100504.32;2046991;87;33037;-61
2021/06/18 03:37:39;;;;;;;15.25;10.72;;;;;;;18.83;58.56;100508.89;2052598;85;29400;-61
2021/06/18 03:40:41;;;;;;;24.87;11.85;;;;;;;18.91;58.59;100510.98;2091302;85;27703;-61
2021/06/18 03:43:44;;;;;;;23.45;13.03;;;;;;;18.96;58.57;100510.12;2088843;85;28793;-61
2021/06/18 03:46:47;;;;;;;19.07;12.30;;;;;;;19.00;58.52;100508.89;2091177;85;31102;-62
2021/06/18 03:49:51;;;;;;;18.27;11.25;;;;;;;19.06;58.49;100507.04;2091150;85;33043;-62
2021/06/18 03:52:53;;;;;;;18.02;11.35;;;;;;;19.10;58.40;100500.38;2091043;85;29385;-61
2021/06/18 03:55:55;;;;;;;22.22;12.58;;;;;;;19.17;58.35;100499.84;2091248;85;27486;-62
2021/06/18 03:58:58;;;;;;;16.15;12.30;;;;;;;19.23;58.20;100497.99;2052711;86;28613;-61
2021/06/18 04:02:02;;;;;;;15.65;12.23;;;;;;;19.26;58.07;100495.02;2091352;85;31146;-61
2021/06/18 04:05:06;;;;;;;15.00;11.73;;;;;;;19.27;57.98;100489.96;2091006;85;33179;-61
2021/06/18 04:08:09;;;;;;;17.95;13.30;;;;;;;19.28;57.92;100484.86;2088970;85;30189;-61
2021/06/18 04:11:11;;;;;;;13.00;10.30;;;;;;;19.32;57.84;100482.27;2091428;85;27434;-61
2021/06/18 04:14:14;;;;;;;16.05;10.60;;;;;;;19.36;57.78;100484.25;2091310;85;28747;-61
2021/06/18 04:17:17;;;;;;;15.08;10.70;;;;;;;19.42;57.78;100487.80;2088836;85;31137;-61
2021/06/18 04:20:23;;;;;;;11.85;10.25;;;;;;;19.50;57.61;100487.14;2091312;85;32970;-61
2021/06/18 04:23:28;;;;;;;13.80;10.55;;;;;;;19.56;57.49;100477.13;2088921;84;29535;-62
2021/06/18 04:26:29;;;;;;;15.90;12.00;;;;;;;19.65;57.52;100486.35;2091642;85;27470;-63
2021/06/18 04:29:31;;;;;;;11.65;9.85;;;;;;;19.74;57.46;100490.51;2047192;86;28744;-63
2021/06/18 04:32:33;;;;;;;14.95;10.80;;;;;;;19.84;57.29;100492.42;2023634;88;31174;-62
2021/06/18 04:35:35;;;;;;;17.52;11.12;;;;;;;19.93;57.30;100493.52;2047123;86;33041;-63
2021/06/18 04:38:40;;;;;;;14.47;10.55;;;;;;;20.08;57.15;100498.99;2076744;85;29405;-63
2021/06/18 04:41:43;;;;;;;15.80;9.90;;;;;;;20.24;56.97;100494.45;2047403;87;27653;-62
2021/06/18 04:44:45;;;;;;;11.28;10.08;;;;;;;20.39;56.76;100497.66;2052919;86;28784;-63
2021/06/18 04:47:48;;;;;;;18.87;10.15;;;;;;;20.67;56.81;100498.44;2091188;85;31096;-62
2021/06/18 04:50:50;;;;;;;13.68;9.05;;;;;;;21.46;56.84;100499.52;2052746;86;33176;-62
2021/06/18 04:53:56;;;;;;;12.47;9.35;;;;;;;22.58;55.86;100488.05;2091283;85;29393;-62
2021/06/18 04:56:58;;;;;;;18.98;9.18;;;;;;;23.76;54.69;100495.52;2091411;84;27438;-63
2021/06/18 05:00:00;;;;;;;12.03;8.95;;;;;;;24.93;53.28;100491.65;2091320;85;28780;-65
2021/06/18 05:03:02;;;;;;;11.33;9.13;;;;;;;25.94;52.03;100487.91;2090936;85;31170;-64
2021/06/18 05:06:05;;;;;;;11.85;9.00;;;;;;;27.02;50.38;100487.64;2091260;85;32988;-63
2021/06/18 05:09:07;;;;;;;12.10;8.18;;;;;;;27.96;48.42;100474.80;2091302;85;29331;-62
2021/06/18 05:12:10;;;;;;;12.80;8.20;;;;;;;28.73;47.04;100478.30;2091333;85;27400;-67
2021/06/18 05:15:14;;;;;;;17.07;9.37;;;;;;;29.44;45.55;100480.99;2091510;85;28780;-63
2021/06/18 05:18:16;;;;;;;13.72;8.73;;;;;;;30.15;44.41;100479.62;2091539;85;31182;-62
2021/06/18 05:21:18;;;;;;;13.45;8.93;;;;;;;30.83;43.37;100482.31;2091261;85;33125;-65
2021/06/18 05:24:20;;;;;;;15.70;8.75;;;;;;;31.54;42.07;100477.43;2091291;85;29480;-63
2021/06/18 05:27:23;;;;;;;18.17;9.60;;;;;;;32.00;40.65;100481.33;2091353;85;27411;-62
2021/06/18 05:30:26;;;;;;;11.97;9.03;;;;;;;32.57;39.04;100483.59;2091287;85;28574;-62
2021/06/18 05:33:30;;;;;;;14.70;8.68;;;;;;;33.01;38.48;100484.73;2091237;85;31091;-63
2021/06/18 05:36:33;;;;;;;12.03;8.65;;;;;;;33.49;37.54;100489.55;2091252;84;32887;-63
2021/06/18 05:39:35;;;;;;;15.13;9.08;;;;;;;33.86;36.21;100491.61;2090928;84;29383;-63
2021/06/18 05:42:38;;;;;;;15.50;9.83;;;;;;;34.21;35.40;100486.41;2091355;85;27446;-63
2021/06/18 05:45:41;;;;;;;12.85;8.93;;;;;;;34.60;34.98;100492.35;2091275;85;28720;-63
2021/06/18 05:48:44;;;;;;;10.60;9.50;;;;;;;34.91;34.10;100489.95;2091378;84;31085;-62
2021/06/18 05:51:47;;;;;;;11.63;9.33;;;;;;;35.24;33.12;100491.47;2091361;84;33007;-63
2021/06/18 05:54:56;;;;;;;10.55;8.50;;;;;;;35.53;32.75;100482.49;2091244;85;29383;-63
2021/06/18 05:57:59;;;;;;;11.60;9.30;;;;;;;35.74;32.01;100488.08;2091343;85;27516;-63
2021/06/18 06:01:03;;;;;;;15.55;9.40;;;;;;;35.98;31.46;100491.78;2091063;85;28797;-63
2021/06/18 06:04:05;;;;;;;12.85;10.05;;;;;;;36.33;30.84;100489.52;2064822;85;31111;-64
2021/06/18 06:07:07;;;;;;;12.23;9.25;;;;;;;36.58;30.15;100486.18;2047075;87;33640;-64
2021/06/18 06:10:10;;;;;;;13.75;9.73;;;;;;;36.80;29.86;100487.23;2023804;88;29399;-64
2021/06/18 06:13:13;;;;;;;13.80;9.18;;;;;;;36.91;29.42;100494.41;2012614;88;27504;-64
2021/06/18 06:16:15;;;;;;;20.17;9.25;;;;;;;37.02;28.93;100494.98;2047224;87;28752;-65
2021/06/18 06:19:18;;;;;;;14.60;9.60;;;;;;;37.26;28.91;100503.25;2052695;85;31093;-65
2021/06/18 06:22:20;;;;;;;11.80;9.40;;;;;;;37.56;28.31;100507.78;2091434;85;33563;-64
2021/06/18 06:25:22;;;;;;;13.32;8.75;;;;;;;37.69;27.53;100509.38;2091490;85;29397;-65
2021/06/18 06:28:24;;;;;;;21.65;9.25;;;;;;;37.74;27.76;100507.22;2091316;85;27489;-64
2021/06/18 06:31:27;;;;;;;15.18;9.10;;;;;;;37.88;27.31;100503.55;2091252;85;28847;-63
2021/06/18 06:34:29;;;;;;;12.85;8.98;;;;;;;37.96;26.98;100501.20;2091179;85;31083;-64
2021/06/18 06:37:31;;;;;;;12.43;8.60;;;;;;;38.03;26.32;100501.03;2091171;85;33068;-63
2021/06/18 06:40:33;;;;;;;16.37;9.65;;;;;;;38.02;26.17;100497.11;2088081;84;29410;-63
2021/06/18 06:43:35;;;;;;;12.93;8.40;;;;;;;38.07;26.00;100491.03;2071385;85;27516;-63
2021/06/18 06:46:37;;;;;;;12.05;9.10;;;;;;;38.10;26.43;100487.73;2087873;85;28709;-62
2021/06/18 06:49:40;;;;;;;15.80;9.00;;;;;;;38.29;26.01;100490.25;2087809;85;31071;-63
2021/06/18 06:52:43;;;;;;;18.33;9.13;;;;;;;38.37;26.20;100484.23;2088052;85;33078;-63
2021/06/18 06:55:45;;;;;;;16.10;8.93;;;;;;;38.39;25.74;100492.39;2088040;85;29385;-63
2021/06/18 06:58:47;;;;;;;12.47;8.70;;;;;;;38.38;25.74;100485.92;2087891;85;27445;-64
2021/06/18 07:01:49;;;;;;;13.40;9.33;;;;;;;38.48;25.57;100489.42;2088102;85;28747;-62
2021/06/18 07:04:51;;;;;;;9.70;8.43;;;;;;;38.43;25.12;100487.41;2087808;85;31098;-63
2021/06/18 07:07:54;;;;;;;19.27;9.55;;;;;;;38.52;25.68;100490.61;2087819;84;33026;-63
2021/06/18 07:10:56;;;;;;;16.83;8.37;;;;;;;38.66;25.41;100491.63;2088091;85;29389;-63
2021/06/18 07:13:58;;;;;;;12.18;8.83;;;;;;;38.68;25.52;100486.61;2087897;84;27444;-63
2021/06/18 07:17:00;;;;;;;13.17;8.60;;;;;;;38.69;25.38;100480.74;2088095;85;29372;-64
2021/06/18 07:20:04;;;;;;;19.15;8.78;;;;;;;38.94;25.55;100472.95;2087816;85;31077;-63
2021/06/18 07:23:06;;;;;;;15.03;9.30;;;;;;;39.18;25.18;100479.10;2087804;85;33080;-63
2021/06/18 07:26:09;;;;;;;14.20;8.93;;;;;;;39.44;24.71;100478.02;2095244;84;29386;-62
2021/06/18 07:29:10;;;;;;;15.98;9.43;;;;;;;39.48;24.67;100477.75;2088183;85;27461;-64
2021/06/18 07:32:13;;;;;;;12.50;9.03;;;;;;;39.20;24.87;100480.55;2087819;85;28731;-64
2021/06/18 07:35:15;;;;;;;14.90;8.30;;;;;;;39.25;24.78;100476.95;2088143;85;31145;-65
2021/06/18 07:38:17;;;;;;;12.93;8.45;;;;;;;39.30;24.68;100481.22;2072305;85;33086;-64
2021/06/18 07:41:20;;;;;;;12.73;8.25;;;;;;;39.39;24.62;100470.38;2087517;85;29335;-64
2021/06/18 07:44:22;;;;;;;15.35;8.65;;;;;;;39.52;24.71;100467.70;2088369;85;27483;-64
2021/06/18 07:47:24;;;;;;;13.43;9.50;;;;;;;39.68;24.73;100460.28;2088036;85;28758;-64
2021/06/18 07:50:26;;;;;;;21.30;9.55;;;;;;;39.80;24.15;100455.89;2087998;85;31075;-64
2021/06/18 07:53:29;;;;;;;11.33;8.88;;;;;;;39.84;23.93;100459.03;2088195;85;32987;-64
2021/06/18 07:56:40;;;;;;;16.23;9.15;;;;;;;39.84;23.79;100452.02;2087785;85;29517;-64
2021/06/18 07:59:38;;;;;;;16.12;8.70;;;;;;;39.83;23.80;100452.55;2087344;84;27514;-65
2021/06/18 08:02:41;;;;;;;15.13;8.95;;;;;;;39.63;24.08;100450.41;2087979;85;28613;-63
2021/06/18 08:05:43;;;;;;;22.07;8.95;;;;;;;39.58;23.99;100445.61;2088206;85;31077;-64
2021/06/18 08:08:47;;;;;;;18.75;9.03;;;;;;;39.47;24.03;100436.80;2087718;85;30467;-63
2021/06/18 08:11:49;;;;;;;12.35;9.08;;;;;;;39.57;23.94;100435.51;2087891;85;29452;-62
2021/06/18 08:14:51;;;;;;;15.80;8.80;;;;;;;39.49;24.11;100437.38;2088146;85;27575;-62
2021/06/18 08:17:53;;;;;;;10.08;7.95;;;;;;;39.29;24.07;100433.30;2087974;85;28777;-64
2021/06/18 08:20:56;;;;;;;12.05;8.83;;;;;;;38.98;24.19;100440.51;2087631;85;31175;-65
2021/06/18 08:23:58;;;;;;;18.50;8.80;;;;;;;38.77;24.31;100425.39;2088172;85;33018;-62
2021/06/18 08:27:01;;;;;;;13.67;8.70;;;;;;;38.69;24.76;100427.53;2088203;85;29391;-65
2021/06/18 08:30:06;;;;;;;14.25;9.13;;;;;;;38.77;24.52;100431.00;2088181;84;33057;-62
2021/06/18 08:33:08;;;;;;;11.75;7.50;;;;;;;38.92;24.62;100429.80;2087947;85;28737;-61
2021/06/18 08:36:11;;;;;;;9.08;7.42;;;;;;;38.83;24.62;100432.77;2088141;85;31129;-64
2021/06/18 08:39:14;;;;;;;10.70;8.15;;;;;;;38.75;24.50;100426.50;2087894;85;33632;-64
2021/06/18 08:42:18;;;;;;;15.23;8.00;;;;;;;38.64;24.50;100426.06;2095617;84;29439;-64
2021/06/18 08:45:20;;;;;;;13.80;8.05;;;;;;;38.62;24.38;100427.45;2088022;85;27501;-64
2021/06/18 08:48:24;;;;;;;14.28;7.78;;;;;;;38.56;24.17;100418.97;2087969;84;29283;-64
2021/06/18 08:51:26;;;;;;;;;;;;;;;38.53;23.88;100423.72;2090446;85;31094;-62
2021/06/18 08:54:44;;;;;;;7.17;6.17;;;;;;;38.52;24.03;100424.83;2087760;85;33028;-63
2021/06/18 08:57:52;;;;;;;8.53;6.60;;;;;;;38.57;24.00;100419.83;2087988;84;29392;-63
2021/06/18 09:00:54;;;;;;;14.63;6.58;;;;;;;38.72;23.64;100420.59;2088061;85;27505;-63
2021/06/18 09:04:05;;;;;;;11.55;6.87;;;;;;;38.77;23.00;100422.03;2087882;84;28815;-62
2021/06/18 09:07:07;;;;;;;10.88;6.78;;;;;;;38.72;23.35;100420.02;2087886;85;31011;-62
2021/06/18 09:10:34;;;;;;;8.93;6.40;;;;;;;38.51;22.44;100416.13;2087889;85;33064;-63
2021/06/18 09:13:38;;;;;;;11.28;6.28;;;;;;;38.50;23.09;100417.77;2088917;84;29357;-63
2021/06/18 09:16:41;;;;;;;6.17;5.58;;;;;;;38.57;22.62;100416.47;2087997;84;27519;-63
2021/06/18 09:19:53;;;;;;;9.55;6.92;;;;;;;38.56;22.83;100410.57;2087924;85;28678;-63
2021/06/18 09:22:56;;;;;;;8.43;6.50;;;;;;;38.53;22.96;100410.26;2087930;85;31103;-63
2021/06/18 09:26:30;;;;;;;12.13;6.87;;;;;;;38.57;23.04;100412.83;2088007;85;33141;-62
2021/06/18 09:29:36;;;;;;;7.50;6.80;;;;;;;38.56;22.45;100406.37;2087477;85;53493;-63
2021/06/18 09:33:13;;;;;;;9.78;6.17;;;;;;;38.24;22.04;100400.63;2072350;85;27527;-63
2021/06/18 09:36:25;;;;;;;8.53;6.67;;;;;;;37.82;22.50;100393.56;2087712;85;27524;-64
2021/06/18 09:39:32;;;;;;;10.53;6.22;;;;;;;37.40;22.84;100398.44;2082018;85;28319;-63
2021/06/18 09:42:48;;;;;;;9.60;6.75;;;;;;;37.23;22.79;100390.63;2091504;85;33051;-63
2021/06/18 09:45:50;;;;;;;8.70;5.85;;;;;;;37.04;22.86;100388.58;2045835;87;29416;-64
2021/06/18 09:48:52;;;;;;;14.30;6.97;;;;;;;36.76;23.32;100387.48;2012796;88;27462;-63
2021/06/18 09:51:58;;;;;;;8.75;6.58;;;;;;;36.54;23.26;100396.52;2047147;87;28751;-63
2021/06/18 09:55:02;;;;;;;7.40;6.40;;;;;;;36.25;23.58;100390.00;2023531;88;31103;-63
2021/06/18 09:58:05;;;;;;;6.50;5.67;;;;;;;36.02;23.77;100395.37;2012507;88;33605;-63
2021/06/18 10:01:20;;;;;;;8.50;6.40;;;;;;;35.74;24.41;100393.30;2047240;87;29465;-63
2021/06/18 10:04:25;;;;;;;7.08;6.08;;;;;;;35.56;24.63;100382.57;2023692;88;27533;-63
2021/06/18 10:07:28;;;;;;;7.72;6.15;;;;;;;35.39;24.32;100384.33;2012361;88;28830;-63
2021/06/18 10:10:34;;;;;;;6.60;5.90;;;;;;;35.14;24.29;100385.34;2047224;87;30719;-63
2021/06/18 10:13:36;;;;;;;8.85;6.78;;;;;;;34.92;24.27;100380.83;2052703;85;33002;-63
2021/06/18 10:16:43;;;;;;;11.43;6.22;;;;;;;34.71;24.88;100373.30;2036465;86;29393;-63
2021/06/18 10:19:46;;;;;;;7.92;6.58;;;;;;;34.53;24.88;100371.41;2052810;86;27453;-63
2021/06/18 10:23:12;;;;;;;9.95;6.90;;;;;;;34.33;25.26;100367.46;2091239;84;29368;-62
2021/06/18 10:26:15;;;;;;;10.78;7.20;;;;;;;34.14;25.44;100366.07;2066020;85;31091;-63
2021/06/18 10:29:32;;;;;;;12.30;6.80;;;;;;;34.08;26.30;100360.90;2091316;85;33052;-62
2021/06/18 10:32:35;;;;;;;7.65;6.95;;;;;;;34.02;26.30;100359.55;2090873;84;29495;-63
2021/06/18 10:35:52;;;;;;;;;;;;;;;33.73;26.02;100360.58;2094045;84;27463;-62
2021/06/18 10:39:12;;;;;;;11.35;7.58;;;;;;;33.53;27.10;100364.94;2090328;85;28796;-62
2021/06/18 10:42:16;;;;;;;;;;;;;;;33.42;26.68;100360.97;2054494;84;31102;-63
2021/06/18 10:45:18;;;;;;;8.53;5.43;;;;;;;33.22;28.21;100338.89;2042886;87;33106;-63
2021/06/18 10:48:42;;;;;;;7.97;5.90;;;;;;;33.22;28.21;100338.89;2024990;87;29321;-63
2021/06/18 10:51:48;;;;;;;12.80;7.37;;;;;;;33.34;27.46;100350.95;2042951;87;27429;-62
2021/06/18 10:54:58;;;;;;;7.42;6.58;;;;;;;33.24;27.10;100348.68;2042726;87;28764;-63
2021/06/18 10:58:01;;;;;;;10.72;6.67;;;;;;;33.09;26.92;100346.25;2042705;86;30931;-62
2021/06/18 11:01:30;;;;;;;6.65;5.85;;;;;;;32.96;27.32;100351.34;2046775;86;33046;-63
2021/06/18 11:04:43;;;;;;;5.55;5.05;;;;;;;32.83;27.46;100351.44;2042590;87;29488;-62
2021/06/18 11:07:46;;;;;;;10.35;6.65;;;;;;;32.74;28.12;100345.27;2042726;86;27591;-62
2021/06/18 11:10:49;;;;;;;8.75;6.50;;;;;;;32.67;28.02;100347.21;2042881;87;28696;-62
2021/06/18 11:14:03;;;;;;;7.95;6.62;;;;;;;32.62;27.79;100335.41;2042865;87;31000;-62
2021/06/18 11:17:11;;;;;;;7.90;7.03;;;;;;;32.55;27.74;100335.44;2042939;86;33030;-63
2021/06/18 11:20:28;;;;;;;9.28;6.12;;;;;;;32.52;27.95;100327.55;2032107;87;29470;-62
2021/06/18 11:23:35;;;;;;;7.70;6.72;;;;;;;32.54;28.56;100324.55;2040822;86;27478;-62
2021/06/18 11:26:37;;;;;;;7.65;4.78;;;;;;;32.56;28.86;100327.44;2042908;86;28743;-62
2021/06/18 11:29:39;;;;;;;9.13;6.72;;;;;;;32.63;29.26;100328.78;2042831;87;31055;-63
2021/06/18 11:32:45;;;;;;;8.70;7.58;;;;;;;32.70;28.86;100320.42;2042815;87;33046;-62
2021/06/18 11:35:49;;;;;;;9.80;6.97;;;;;;;32.68;28.76;100324.78;2042819;87;29409;-63
2021/06/18 11:39:07;;;;;;;10.23;6.80;;;;;;;32.63;28.70;100325.14;2042784;86;27505;-63
2021/06/18 11:42:09;;;;;;;10.48;7.35;;;;;;;32.63;28.80;100326.53;2078999;85;28791;-63
2021/06/18 11:45:13;;;;;;;7.30;6.53;;;;;;;32.64;28.42;100324.07;2087871;85;31064;-63
2021/06/18 11:48:17;;;;;;;6.80;5.80;;;;;;;32.56;28.73;100319.12;2088102;84;33110;-63
2021/06/18 11:51:29;;;;;;;5.50;5.00;;;;;;;32.60;28.34;100311.19;2088213;85;29381;-63
2021/06/18 11:54:38;;;;;;;5.83;4.87;;;;;;;32.67;28.23;100311.15;2088108;85;27465;-63
2021/06/18 11:57:40;;;;;;;4.90;4.50;;;;;;;32.77;28.22;100310.67;2071557;85;28979;-62
2021/06/18 12:00:42;;;;;;;8.28;6.65;;;;;;;32.87;28.34;100304.11;2088093;85;31086;-63
2021/06/18 12:03:52;;;;;;;5.03;4.62;;;;;;;32.94;28.08;100303.54;2087585;85;30133;-63
2021/06/18 12:06:54;;;;;;;5.08;4.30;;;;;;;33.06;28.12;100310.61;2087961;85;29408;-63
2021/06/18 12:09:56;;;;;;;6.00;4.28;;;;;;;33.15;28.41;100300.91;2088067;85;27441;-62
2021/06/18 12:13:00;;;;;;;4.50;3.87;;;;;;;33.28;28.66;100308.81;2087988;85;28789;-63
2021/06/18 12:16:08;;;;;;;7.67;5.55;;;;;;;33.38;28.37;100307.81;2088057;85;31091;-62
2021/06/18 12:19:24;;;;;;;7.72;5.78;;;;;;;33.50;28.38;100312.61;2087633;85;33076;-61
2021/06/18 12:22:30;;;;;;;6.22;5.40;;;;;;;33.65;28.37;100308.09;2087977;85;29453;-62
2021/06/18 12:25:31;;;;;;;13.00;5.22;;;;;;;33.74;28.11;100303.92;2087767;84;27510;-65
2021/06/18 12:28:37;;;;;;;7.25;5.22;;;;;;;33.78;27.84;100306.56;2072012;85;29030;-63
2021/06/18 12:31:39;;;;;;;5.85;5.20;;;;;;;33.78;27.69;100301.84;2087963;85;31008;-63
2021/06/18 12:34:51;;;;;;;9.85;5.47;;;;;;;33.73;27.09;100294.75;2087921;85;33144;-62
2021/06/18 12:37:53;;;;;;;6.50;5.35;;;;;;;33.61;27.10;100304.38;2087969;85;29418;-64
2021/06/18 12:40:56;;;;;;;7.87;5.58;;;;;;;33.46;27.37;100300.56;2078249;85;27435;-60
2021/06/18 12:44:06;;;;;;;6.30;5.47;;;;;;;33.40;27.39;100297.33;2053286;85;28794;-62
2021/06/18 12:47:09;;;;;;;7.08;5.50;;;;;;;33.31;27.57;100295.87;2091328;84;31250;-60
2021/06/18 12:50:34;;;;;;;6.70;5.03;;;;;;;33.25;27.89;100285.13;2091416;85;33034;-59
2021/06/18 12:53:42;;;;;;;7.33;5.25;;;;;;;33.25;28.07;100294.85;2090854;85;30788;-59
2021/06/18 12:56:47;;;;;;;9.20;5.33;;;;;;;33.26;27.85;100291.00;2091954;85;27469;-61
2021/06/18 12:59:53;;;;;;;6.85;5.58;;;;;;;33.30;27.87;100292.77;2091290;85;28915;-62
2021/06/18 13:02:56;;;;;;;8.68;4.90;;;;;;;33.33;27.72;100286.25;2088550;85;31091;-61
2021/06/18 13:06:01;;;;;;;5.95;5.35;;;;;;;33.32;28.13;100287.84;2065318;85;33014;-61
2021/06/18 13:09:04;;;;;;;9.85;6.87;;;;;;;33.38;28.55;100285.59;2091311;85;29411;-60
2021/06/18 13:12:09;;;;;;;5.97;5.37;;;;;;;33.40;28.62;100274.24;2091505;85;27433;-61
2021/06/18 13:15:16;;;;;;;4.67;4.25;;;;;;;33.15;28.46;100237.61;2091133;85;28639;-62
2021/06/18 13:18:18;;;;;;;4.72;4.33;;;;;;;33.32;28.07;100282.30;2065711;85;31093;-62
2021/06/18 13:21:22;;;;;;;10.00;4.22;;;;;;;33.21;27.85;100276.94;2041085;85;32905;-63
2021/06/18 13:24:29;;;;;;;5.92;4.65;;;;;;;33.15;27.55;100278.70;2091276;85;29403;-64
2021/06/18 13:27:32;;;;;;;9.58;4.85;;;;;;;33.07;27.65;100278.14;2091379;85;27610;-61
2021/06/18 13:30:34;;;;;;;5.62;4.62;;;;;;;33.02;28.02;100282.43;2091261;85;28622;-60
2021/06/18 13:33:52;;;;;;;5.33;4.83;;;;;;;33.01;27.99;100276.56;2091229;85;31101;-60
2021/06/18 13:37:07;;;;;;;6.40;4.70;;;;;;;33.02;27.95;100270.49;2091218;85;33050;-62
2021/06/18 13:40:47;;;;;;;6.25;4.70;;;;;;;33.00;28.05;100268.48;2090978;85;29482;-64
2021/06/18 13:43:52;;;;;;;9.50;5.25;;;;;;;32.94;28.09;100275.78;2091374;85;27486;-64
2021/06/18 13:46:56;;;;;;;9.05;4.87;;;;;;;32.83;28.30;100267.64;2064959;85;28858;-65
2021/06/18 13:50:09;;;;;;;7.45;4.42;;;;;;;32.75;28.40;100270.67;2091103;84;31397;-63
2021/06/18 13:53:11;;;;;;;5.58;4.20;;;;;;;32.64;27.96;100273.63;2091135;85;33054;-64
2021/06/18 13:56:14;;;;;;;7.50;4.87;;;;;;;32.54;28.12;100271.33;2091216;85;29477;-64
2021/06/18 13:59:15;;;;;;;7.80;5.10;;;;;;;32.47;27.84;100261.35;2064590;85;27488;-62
2021/06/18 14:02:18;;;;;;;7.60;5.25;;;;;;;32.41;27.67;100261.71;2091253;85;28773;-63
2021/06/18 14:05:20;;;;;;;6.87;4.65;;;;;;;32.31;28.23;100258.55;2091213;85;31116;-63
2021/06/18 14:08:23;;;;;;;4.87;4.40;;;;;;;32.25;27.83;100258.87;2065496;85;32963;-63
2021/06/18 14:11:26;;;;;;;5.22;4.72;;;;;;;32.19;27.80;100256.97;2091251;84;29391;-64
2021/06/18 14:14:37;;;;;;;6.42;4.60;;;;;;;32.13;27.49;100258.19;2091329;85;27464;-63